sensor_id;sensor_type;location;lat;lon;timestamp;pressure;altitude;pressure_sealevel;temperature;humidity
46534;BME280;32260;52.008;4.752;2022-12-13T00:01:26;101397.63;;;-2.60;67.58
46534;BME280;32260;52.008;4.752;2022-12-13T00:04:01;101395.97;;;-2.57;67.67
46534;BME280;32260;52.008;4.752;2022-12-13T00:06:28;101392.38;;;-2.61;67.53
46534;BME280;32260;52.008;4.752;2022-12-13T00:08:56;101394.91;;;-2.63;67.43
46534;BME280;32260;52.008;4.752;2022-12-13T00:11:23;101390.53;;;-2.64;67.39
46534;BME280;32260;52.008;4.752;2022-12-13T00:13:50;101392.16;;;-2.66;67.33
46534;BME280;32260;52.008;4.752;2022-12-13T00:16:18;101395.56;;;-2.67;67.54
46534;BME280;32260;52.008;4.752;2022-12-13T00:18:49;101390.47;;;-2.65;67.65
46534;BME280;32260;52.008;4.752;2022-12-13T00:21:18;101388.63;;;-2.68;67.36
46534;BME280;32260;52.008;4.752;2022-12-13T00:23:45;101386.03;;;-2.68;67.63
46534;BME280;32260;52.008;4.752;2022-12-13T00:26:13;101379.06;;;-2.69;67.47
46534;BME280;32260;52.008;4.752;2022-12-13T00:28:40;101385.09;;;-2.70;67.65
46534;BME280;32260;52.008;4.752;2022-12-13T00:31:07;101391.13;;;-2.69;67.54
46534;BME280;32260;52.008;4.752;2022-12-13T00:33:37;101389.50;;;-2.67;67.28
46534;BME280;32260;52.008;4.752;2022-12-13T00:36:05;101387.69;;;-2.70;67.51
46534;BME280;32260;52.008;4.752;2022-12-13T00:38:33;101381.53;;;-2.72;67.79
46534;BME280;32260;52.008;4.752;2022-12-13T00:43:48;101383.25;;;-2.72;67.44
46534;BME280;32260;52.008;4.752;2022-12-13T00:46:17;101374.66;;;-2.71;67.82
46534;BME280;32260;52.008;4.752;2022-12-13T00:48:49;101361.69;;;-2.71;67.38
46534;BME280;32260;52.008;4.752;2022-12-13T00:51:15;101366.72;;;-2.74;67.85
46534;BME280;32260;52.008;4.752;2022-12-13T00:53:42;101362.28;;;-2.77;67.87
46534;BME280;32260;52.008;4.752;2022-12-13T00:56:12;101364.94;;;-2.76;67.29
46534;BME280;32260;52.008;4.752;2022-12-13T00:58:39;101364.00;;;-2.78;67.13
46534;BME280;32260;52.008;4.752;2022-12-13T01:01:08;101358.72;;;-2.79;67.77
46534;BME280;32260;52.008;4.752;2022-12-13T01:03:35;101364.75;;;-2.80;67.27
46534;BME280;32260;52.008;4.752;2022-12-13T01:06:07;101361.22;;;-2.82;67.30
46534;BME280;32260;52.008;4.752;2022-12-13T01:08:36;101370.78;;;-2.81;67.02
46534;BME280;32260;52.008;4.752;2022-12-13T01:11:05;101362.94;;;-2.83;67.46
46534;BME280;32260;52.008;4.752;2022-12-13T01:13:33;101361.16;;;-2.84;67.54
46534;BME280;32260;52.008;4.752;2022-12-13T01:16:04;101358.56;;;-2.84;67.33
46534;BME280;32260;52.008;4.752;2022-12-13T01:18:32;101356.78;;;-2.85;67.38
46534;BME280;32260;52.008;4.752;2022-12-13T01:21:06;101356.91;;;-2.82;67.36
46534;BME280;32260;52.008;4.752;2022-12-13T01:23:34;101358.50;;;-2.85;67.31
46534;BME280;32260;52.008;4.752;2022-12-13T01:26:03;101356.72;;;-2.86;67.30
46534;BME280;32260;52.008;4.752;2022-12-13T01:28:30;101354.03;;;-2.88;67.27
46534;BME280;32260;52.008;4.752;2022-12-13T01:30:59;101360.13;;;-2.87;67.75
46534;BME280;32260;52.008;4.752;2022-12-13T01:33:26;101357.53;;;-2.87;67.33
46534;BME280;32260;52.008;4.752;2022-12-13T01:35:53;101364.34;;;-2.89;67.30
46534;BME280;32260;52.008;4.752;2022-12-13T01:38:20;101365.16;;;-2.90;66.98
46534;BME280;32260;52.008;4.752;2022-12-13T01:40:49;101364.25;;;-2.93;67.11
46534;BME280;32260;52.008;4.752;2022-12-13T01:43:15;101353.88;;;-2.93;67.81
46534;BME280;32260;52.008;4.752;2022-12-13T01:45:42;101363.41;;;-2.91;67.21
46534;BME280;32260;52.008;4.752;2022-12-13T01:48:14;101358.22;;;-2.91;67.35
46534;BME280;32260;52.008;4.752;2022-12-13T01:50:45;101353.88;;;-2.93;67.56
46534;BME280;32260;52.008;4.752;2022-12-13T01:53:17;101363.41;;;-2.91;67.30
46534;BME280;32260;52.008;4.752;2022-12-13T01:55:48;101362.41;;;-2.95;67.01
46534;BME280;32260;52.008;4.752;2022-12-13T01:58:16;101356.25;;;-2.97;67.62
46534;BME280;32260;52.008;4.752;2022-12-13T02:00:43;101353.72;;;-2.96;67.60
46534;BME280;32260;52.008;4.752;2022-12-13T02:03:10;101353.72;;;-2.96;67.29
46534;BME280;32260;52.008;4.752;2022-12-13T02:05:42;101351.13;;;-2.96;68.16
46534;BME280;32260;52.008;4.752;2022-12-13T02:08:11;101351.94;;;-2.97;67.98
46534;BME280;32260;52.008;4.752;2022-12-13T02:10:39;101348.53;;;-2.96;67.78
46534;BME280;32260;52.008;4.752;2022-12-13T02:13:07;101344.16;;;-2.97;67.06
46534;BME280;32260;52.008;4.752;2022-12-13T02:15:47;101349.50;;;-2.94;67.21
46534;BME280;32260;52.008;4.752;2022-12-13T02:30:10;101345.63;;;-3.03;67.79
46534;BME280;32260;52.008;4.752;2022-12-13T02:32:45;101344.25;;;-2.95;67.59
46534;BME280;32260;52.008;4.752;2022-12-13T02:38:15;101338.22;;;-2.94;67.23
46534;BME280;32260;52.008;4.752;2022-12-13T02:40:50;101324.31;;;-2.96;67.42
46534;BME280;32260;52.008;4.752;2022-12-13T02:43:23;101332.03;;;-2.98;67.29
46534;BME280;32260;52.008;4.752;2022-12-13T02:45:54;101331.06;;;-3.00;67.49
46534;BME280;32260;52.008;4.752;2022-12-13T02:48:27;101325.06;;;-2.99;67.41
46534;BME280;32260;52.008;4.752;2022-12-13T02:50:54;101332.72;;;-3.02;67.17
46534;BME280;32260;52.008;4.752;2022-12-13T02:53:23;101329.25;;;-3.02;67.75
46534;BME280;32260;52.008;4.752;2022-12-13T02:55:49;101323.16;;;-3.03;66.99
46534;BME280;32260;52.008;4.752;2022-12-13T02:58:19;101329.19;;;-3.04;67.36
46534;BME280;32260;52.008;4.752;2022-12-13T03:03:50;101323.91;;;-3.05;67.79
46534;BME280;32260;52.008;4.752;2022-12-13T03:06:31;101317.97;;;-3.03;67.61
46534;BME280;32260;52.008;4.752;2022-12-13T03:12:11;101323.31;;;-3.00;67.70
46534;BME280;32260;52.008;4.752;2022-12-13T03:17:59;101321.41;;;-3.04;67.65
46534;BME280;32260;52.008;4.752;2022-12-13T03:20:29;101323.84;;;-3.07;67.77
46534;BME280;32260;52.008;4.752;2022-12-13T03:22:55;101327.34;;;-3.06;67.78
46534;BME280;32260;52.008;4.752;2022-12-13T03:25:26;101334.38;;;-3.04;67.79
46534;BME280;32260;52.008;4.752;2022-12-13T03:27:54;101327.41;;;-3.05;67.44
46534;BME280;32260;52.008;4.752;2022-12-13T03:30:20;101335.19;;;-3.05;67.98
46534;BME280;32260;52.008;4.752;2022-12-13T03:32:47;101330.00;;;-3.05;67.71
46534;BME280;32260;52.008;4.752;2022-12-13T03:35:13;101325.63;;;-3.06;67.71
46534;BME280;32260;52.008;4.752;2022-12-13T03:37:39;101324.66;;;-3.08;68.33
46534;BME280;32260;52.008;4.752;2022-12-13T03:40:05;101332.53;;;-3.06;67.78
46534;BME280;32260;52.008;4.752;2022-12-13T03:42:31;101324.66;;;-3.08;67.77
46534;BME280;32260;52.008;4.752;2022-12-13T03:44:58;101325.56;;;-3.07;67.83
46534;BME280;32260;52.008;4.752;2022-12-13T03:47:27;101321.25;;;-3.07;67.55
46534;BME280;32260;52.008;4.752;2022-12-13T03:49:53;101322.88;;;-3.09;67.61
46534;BME280;32260;52.008;4.752;2022-12-13T03:52:20;101324.53;;;-3.11;67.27
46534;BME280;32260;52.008;4.752;2022-12-13T03:54:46;101318.41;;;-3.13;67.27
46534;BME280;32260;52.008;4.752;2022-12-13T03:57:13;101324.41;;;-3.14;68.02
46534;BME280;32260;52.008;4.752;2022-12-13T03:59:40;101321.81;;;-3.14;67.68
46534;BME280;32260;52.008;4.752;2022-12-13T04:02:06;101322.72;;;-3.14;67.59
46534;BME280;32260;52.008;4.752;2022-12-13T04:04:32;101318.41;;;-3.13;67.64
46534;BME280;32260;52.008;4.752;2022-12-13T04:06:58;101318.41;;;-3.13;67.66
46534;BME280;32260;52.008;4.752;2022-12-13T04:09:24;101320.19;;;-3.12;67.94
46534;BME280;32260;52.008;4.752;2022-12-13T04:11:50;101317.59;;;-3.12;67.75
46534;BME280;32260;52.008;4.752;2022-12-13T04:14:36;101317.59;;;-3.12;67.54
46534;BME280;32260;52.008;4.752;2022-12-13T04:17:03;101312.41;;;-3.12;67.48
46534;BME280;32260;52.008;4.752;2022-12-13T04:19:29;101315.88;;;-3.12;67.83
46534;BME280;32260;52.008;4.752;2022-12-13T04:21:55;101315.00;;;-3.12;67.46
46534;BME280;32260;52.008;4.752;2022-12-13T04:24:23;101320.22;;;-3.11;67.83
46534;BME280;32260;52.008;4.752;2022-12-13T04:26:50;101309.81;;;-3.12;68.02
46534;BME280;32260;52.008;4.752;2022-12-13T04:29:16;101309.88;;;-3.11;67.97
46534;BME280;32260;52.008;4.752;2022-12-13T04:31:42;101305.59;;;-3.10;68.25
46534;BME280;32260;52.008;4.752;2022-12-13T04:34:08;101309.00;;;-3.11;68.16
46534;BME280;32260;52.008;4.752;2022-12-13T04:36:34;101304.63;;;-3.12;68.40
46534;BME280;32260;52.008;4.752;2022-12-13T04:39:02;101304.63;;;-3.12;68.13
46534;BME280;32260;52.008;4.752;2022-12-13T04:41:28;101302.03;;;-3.12;67.91
46534;BME280;32260;52.008;4.752;2022-12-13T04:43:55;101307.16;;;-3.14;68.25
46534;BME280;32260;52.008;4.752;2022-12-13T04:46:21;101307.22;;;-3.12;67.80
46534;BME280;32260;52.008;4.752;2022-12-13T04:48:48;101298.47;;;-3.14;68.38
46534;BME280;32260;52.008;4.752;2022-12-13T04:51:15;101303.66;;;-3.14;68.13
46534;BME280;32260;52.008;4.752;2022-12-13T04:53:41;101307.09;;;-3.15;67.69
46534;BME280;32260;52.008;4.752;2022-12-13T04:56:07;101304.50;;;-3.15;67.72
46534;BME280;32260;52.008;4.752;2022-12-13T04:58:33;101300.13;;;-3.16;67.88
46534;BME280;32260;52.008;4.752;2022-12-13T05:01:00;101291.53;;;-3.15;68.13
46534;BME280;32260;52.008;4.752;2022-12-13T05:03:26;101297.53;;;-3.16;68.59
46534;BME280;32260;52.008;4.752;2022-12-13T05:05:52;101298.47;;;-3.14;68.28
46534;BME280;32260;52.008;4.752;2022-12-13T05:08:19;101289.88;;;-3.13;68.29
46534;BME280;32260;52.008;4.752;2022-12-13T05:10:45;101289.94;;;-3.12;68.34
46534;BME280;32260;52.008;4.752;2022-12-13T05:13:11;101285.66;;;-3.11;68.78
46534;BME280;32260;52.008;4.752;2022-12-13T05:15:37;101287.50;;;-3.09;68.24
46534;BME280;32260;52.008;4.752;2022-12-13T05:18:05;101290.91;;;-3.10;68.36
46534;BME280;32260;52.008;4.752;2022-12-13T05:20:33;101287.34;;;-3.12;68.33
46534;BME280;32260;52.008;4.752;2022-12-13T05:23:01;101295.06;;;-3.13;67.79
46534;BME280;32260;52.008;4.752;2022-12-13T05:25:27;101293.28;;;-3.14;68.60
46534;BME280;32260;52.008;4.752;2022-12-13T05:27:54;101288.09;;;-3.14;68.71
46534;BME280;32260;52.008;4.752;2022-12-13T05:30:20;101298.47;;;-3.14;68.52
46534;BME280;32260;52.008;4.752;2022-12-13T05:32:46;101295.06;;;-3.13;68.79
46534;BME280;32260;52.008;4.752;2022-12-13T05:35:13;101289.13;;;-3.11;68.79
46534;BME280;32260;52.008;4.752;2022-12-13T05:37:40;101290.91;;;-3.10;68.72
46534;BME280;32260;52.008;4.752;2022-12-13T05:40:07;101293.56;;;-3.08;68.87
46534;BME280;32260;52.008;4.752;2022-12-13T05:42:36;101295.34;;;-3.07;68.54
46534;BME280;32260;52.008;4.752;2022-12-13T05:45:05;101293.56;;;-3.08;68.10
46534;BME280;32260;52.008;4.752;2022-12-13T05:47:32;101290.16;;;-3.07;68.05
46534;BME280;32260;52.008;4.752;2022-12-13T05:49:58;101285.78;;;-3.08;68.30
46534;BME280;32260;52.008;4.752;2022-12-13T05:52:24;101284.09;;;-3.07;68.59
46534;BME280;32260;52.008;4.752;2022-12-13T05:54:54;101281.56;;;-3.06;68.08
46534;BME280;32260;52.008;4.752;2022-12-13T05:57:21;101284.97;;;-3.07;67.92
46534;BME280;32260;52.008;4.752;2022-12-13T05:59:47;101286.75;;;-3.06;67.65
46534;BME280;32260;52.008;4.752;2022-12-13T06:02:13;101284.09;;;-3.07;68.08
46534;BME280;32260;52.008;4.752;2022-12-13T06:04:39;101278.00;;;-3.08;67.99
46534;BME280;32260;52.008;4.752;2022-12-13T06:07:05;101273.63;;;-3.09;68.63
46534;BME280;32260;52.008;4.752;2022-12-13T06:09:32;101276.16;;;-3.11;68.39
46534;BME280;32260;52.008;4.752;2022-12-13T06:11:58;101278.75;;;-3.11;67.95
46534;BME280;32260;52.008;4.752;2022-12-13T06:14:24;101267.50;;;-3.11;68.13
46534;BME280;32260;52.008;4.752;2022-12-13T06:16:52;101268.34;;;-3.12;68.16
46534;BME280;32260;52.008;4.752;2022-12-13T06:19:20;101263.97;;;-3.13;68.09
46534;BME280;32260;52.008;4.752;2022-12-13T06:21:46;101267.38;;;-3.14;68.35
46534;BME280;32260;52.008;4.752;2022-12-13T06:24:14;101271.75;;;-3.13;68.00
46534;BME280;32260;52.008;4.752;2022-12-13T06:26:40;101263.84;;;-3.16;67.65
46534;BME280;32260;52.008;4.752;2022-12-13T06:29:06;101263.69;;;-3.19;68.31
46534;BME280;32260;52.008;4.752;2022-12-13T06:31:32;101277.47;;;-3.20;67.77
46534;BME280;32260;52.008;4.752;2022-12-13T06:34:02;101275.78;;;-3.20;67.72
46534;BME280;32260;52.008;4.752;2022-12-13T06:36:32;101281.63;;;-3.24;68.11
46534;BME280;32260;52.008;4.752;2022-12-13T06:39:05;101286.09;;;-3.21;67.75
46534;BME280;32260;52.008;4.752;2022-12-13T06:41:36;101280.75;;;-3.25;68.07
46534;BME280;32260;52.008;4.752;2022-12-13T06:44:02;101287.56;;;-3.27;67.34
46534;BME280;32260;52.008;4.752;2022-12-13T06:46:31;101284.09;;;-3.27;67.42
46534;BME280;32260;52.008;4.752;2022-12-13T06:48:57;101289.22;;;-3.29;67.40
46534;BME280;32260;52.008;4.752;2022-12-13T06:51:26;101288.31;;;-3.29;67.73
46534;BME280;32260;52.008;4.752;2022-12-13T06:53:52;101288.28;;;-3.31;67.52
46534;BME280;32260;52.008;4.752;2022-12-13T06:56:21;101289.09;;;-3.32;68.01
46534;BME280;32260;52.008;4.752;2022-12-13T06:58:47;101292.50;;;-3.33;67.68
46534;BME280;32260;52.008;4.752;2022-12-13T07:01:20;101285.47;;;-3.35;67.42
46534;BME280;32260;52.008;4.752;2022-12-13T07:03:46;101280.22;;;-3.37;67.25
46534;BME280;32260;52.008;4.752;2022-12-13T07:06:15;101278.44;;;-3.38;67.85
46534;BME280;32260;52.008;4.752;2022-12-13T07:08:43;101280.09;;;-3.40;66.92
46534;BME280;32260;52.008;4.752;2022-12-13T07:11:27;101278.44;;;-3.38;67.84
46534;BME280;32260;52.008;4.752;2022-12-13T07:13:54;101283.44;;;-3.43;67.58
46534;BME280;32260;52.008;4.752;2022-12-13T07:16:22;101287.72;;;-3.43;67.79
46534;BME280;32260;52.008;4.752;2022-12-13T07:18:53;101287.78;;;-3.42;67.56
46534;BME280;32260;52.008;4.752;2022-12-13T07:21:20;101285.94;;;-3.44;67.79
46534;BME280;32260;52.008;4.752;2022-12-13T07:23:46;101288.53;;;-3.44;67.43
46534;BME280;32260;52.008;4.752;2022-12-13T07:26:13;101287.66;;;-3.45;67.51
46534;BME280;32260;52.008;4.752;2022-12-13T07:28:39;101292.78;;;-3.46;67.31
46534;BME280;32260;52.008;4.752;2022-12-13T07:31:07;101292.78;;;-3.46;67.80
46534;BME280;32260;52.008;4.752;2022-12-13T07:33:33;101301.44;;;-3.46;67.54
46534;BME280;32260;52.008;4.752;2022-12-13T07:36:02;101297.13;;;-3.45;67.84
46534;BME280;32260;52.008;4.752;2022-12-13T07:38:33;101293.72;;;-3.44;67.21
46534;BME280;32260;52.008;4.752;2022-12-13T07:40:59;101300.56;;;-3.46;67.17
46534;BME280;32260;52.008;4.752;2022-12-13T07:43:26;101299.72;;;-3.45;67.50
46534;BME280;32260;52.008;4.752;2022-12-13T07:45:58;101302.25;;;-3.47;67.56
46534;BME280;32260;52.008;4.752;2022-12-13T07:48:24;101312.66;;;-3.45;67.18
46534;BME280;32260;52.008;4.752;2022-12-13T07:50:51;101314.44;;;-3.44;67.31
46534;BME280;32260;52.008;4.752;2022-12-13T07:53:18;101310.09;;;-3.45;67.50
46534;BME280;32260;52.008;4.752;2022-12-13T07:55:47;101308.41;;;-3.45;67.20
46534;BME280;32260;52.008;4.752;2022-12-13T07:58:14;101303.28;;;-3.43;67.90
46534;BME280;32260;52.008;4.752;2022-12-13T08:00:43;101306.78;;;-3.43;67.59
46534;BME280;32260;52.008;4.752;2022-12-13T08:03:09;101299.06;;;-3.41;67.67
46534;BME280;32260;52.008;4.752;2022-12-13T08:05:36;101299.06;;;-3.41;68.11
46534;BME280;32260;52.008;4.752;2022-12-13T08:08:04;101301.72;;;-3.39;67.29
46534;BME280;32260;52.008;4.752;2022-12-13T08:10:31;101305.25;;;-3.37;67.88
46534;BME280;32260;52.008;4.752;2022-12-13T08:12:57;101303.53;;;-3.37;68.09
46534;BME280;32260;52.008;4.752;2022-12-13T08:15:24;101306.13;;;-3.37;67.70
46534;BME280;32260;52.008;4.752;2022-12-13T08:17:55;101311.59;;;-3.31;67.73
46534;BME280;32260;52.008;4.752;2022-12-13T08:20:22;101315.91;;;-3.31;67.64
46534;BME280;32260;52.008;4.752;2022-12-13T08:22:56;101317.91;;;-3.24;68.10
46534;BME280;32260;52.008;4.752;2022-12-13T08:25:23;101324.00;;;-3.23;67.84
46534;BME280;32260;52.008;4.752;2022-12-13T08:27:49;101319.78;;;-3.21;67.84
46534;BME280;32260;52.008;4.752;2022-12-13T08:30:15;101313.75;;;-3.20;67.37
46534;BME280;32260;52.008;4.752;2022-12-13T08:32:41;101312.19;;;-3.17;67.92
46534;BME280;32260;52.008;4.752;2022-12-13T08:35:07;101307.97;;;-3.15;68.10
46534;BME280;32260;52.008;4.752;2022-12-13T08:37:33;101310.69;;;-3.12;67.45
46534;BME280;32260;52.008;4.752;2022-12-13T08:40:00;101319.41;;;-3.10;67.92
46534;BME280;32260;52.008;4.752;2022-12-13T08:42:26;101320.50;;;-3.04;68.15
46534;BME280;32260;52.008;4.752;2022-12-13T08:44:52;101323.31;;;-3.00;67.91
46534;BME280;32260;52.008;4.752;2022-12-13T08:47:22;101331.34;;;-2.94;67.90
46534;BME280;32260;52.008;4.752;2022-12-13T08:49:52;101331.06;;;-2.80;67.97
46534;BME280;32260;52.008;4.752;2022-12-13T08:52:21;101332.69;;;-2.82;67.95
46534;BME280;32260;52.008;4.752;2022-12-13T08:54:50;101335.47;;;-2.78;67.99
46534;BME280;32260;52.008;4.752;2022-12-13T08:57:17;101325.22;;;-2.74;68.08
46534;BME280;32260;52.008;4.752;2022-12-13T08:59:43;101330.66;;;-2.68;68.19
46534;BME280;32260;52.008;4.752;2022-12-13T09:02:12;101327.50;;;-2.61;68.29
46534;BME280;32260;52.008;4.752;2022-12-13T09:04:38;101336.31;;;-2.57;68.23
46534;BME280;32260;52.008;4.752;2022-12-13T09:07:04;101333.06;;;-2.52;68.24
46534;BME280;32260;52.008;4.752;2022-12-13T09:09:31;101330.72;;;-2.46;68.41
46534;BME280;32260;52.008;4.752;2022-12-13T09:11:57;101329.16;;;-2.42;68.26
46534;BME280;32260;52.008;4.752;2022-12-13T09:14:23;101326.75;;;-2.37;68.35
46534;BME280;32260;52.008;4.752;2022-12-13T09:16:49;101329.53;;;-2.33;68.30
46534;BME280;32260;52.008;4.752;2022-12-13T09:19:15;101324.59;;;-2.26;68.34
46534;BME280;32260;52.008;4.752;2022-12-13T09:21:41;101336.09;;;-2.20;68.62
46534;BME280;32260;52.008;4.752;2022-12-13T09:24:07;101331.16;;;-2.14;68.44
46534;BME280;32260;52.008;4.752;2022-12-13T09:26:33;101327.06;;;-2.07;68.49
46534;BME280;32260;52.008;4.752;2022-12-13T09:28:59;101326.50;;;-2.00;68.33
46534;BME280;32260;52.008;4.752;2022-12-13T09:31:25;101316.38;;;-1.92;68.56
46534;BME280;32260;52.008;4.752;2022-12-13T09:33:51;101324.50;;;-1.84;68.72
46534;BME280;32260;52.008;4.752;2022-12-13T09:36:19;101323.06;;;-1.76;68.94
46534;BME280;32260;52.008;4.752;2022-12-13T09:38:46;101323.44;;;-1.67;69.24
46534;BME280;32260;52.008;4.752;2022-12-13T09:41:19;101322.13;;;-1.55;69.21
46534;BME280;32260;52.008;4.752;2022-12-13T09:43:51;101312.94;;;-1.45;69.09
46534;BME280;32260;52.008;4.752;2022-12-13T09:49:08;101312.63;;;-1.31;68.97
46534;BME280;32260;52.008;4.752;2022-12-13T09:51:37;101306.75;;;-1.25;69.23
46534;BME280;32260;52.008;4.752;2022-12-13T09:54:04;101306.97;;;-1.19;68.57
46534;BME280;32260;52.008;4.752;2022-12-13T09:56:30;101311.56;;;-1.11;69.05
46534;BME280;32260;52.008;4.752;2022-12-13T09:58:57;101294.44;;;-1.05;68.88
46534;BME280;32260;52.008;4.752;2022-12-13T10:01:24;101292.81;;;-1.01;68.81
46534;BME280;32260;52.008;4.752;2022-12-13T10:03:53;101299.16;;;-0.94;69.43
46534;BME280;32260;52.008;4.752;2022-12-13T10:06:23;101298.91;;;-0.75;69.00
46534;BME280;32260;52.008;4.752;2022-12-13T10:08:56;101294.56;;;-0.76;69.00
46534;BME280;32260;52.008;4.752;2022-12-13T10:11:23;101296.59;;;-0.67;69.10
46534;BME280;32260;52.008;4.752;2022-12-13T10:19:16;101286.28;;;-0.37;69.49
46534;BME280;32260;52.008;4.752;2022-12-13T10:21:44;101281.38;;;-0.27;69.25
46534;BME280;32260;52.008;4.752;2022-12-13T10:26:49;101275.06;;;-0.07;69.37
46534;BME280;32260;52.008;4.752;2022-12-13T10:29:15;101270.13;;;0.03;69.36
46534;BME280;32260;52.008;4.752;2022-12-13T10:31:44;101269.53;;;0.11;69.29
46534;BME280;32260;52.008;4.752;2022-12-13T10:34:24;101268.00;;;0.20;69.28
46534;BME280;32260;52.008;4.752;2022-12-13T10:36:51;101262.91;;;0.23;68.84
46534;BME280;32260;52.008;4.752;2022-12-13T10:39:36;101258.84;;;0.32;68.82
46534;BME280;32260;52.008;4.752;2022-12-13T10:42:14;101251.94;;;0.35;68.58
46534;BME280;32260;52.008;4.752;2022-12-13T10:44:41;101262.34;;;0.35;68.48
46534;BME280;32260;52.008;4.752;2022-12-13T10:49:54;101249.59;;;0.44;68.24
46534;BME280;32260;52.008;4.752;2022-12-13T10:52:30;101248.91;;;0.51;68.48
46534;BME280;32260;52.008;4.752;2022-12-13T10:55:00;101245.56;;;0.55;68.68
46534;BME280;32260;52.008;4.752;2022-12-13T10:57:28;101251.91;;;0.65;68.77
46534;BME280;32260;52.008;4.752;2022-12-13T10:59:54;101236.44;;;0.71;68.10
46534;BME280;32260;52.008;4.752;2022-12-13T11:02:36;101242.19;;;0.91;68.69
46534;BME280;32260;52.008;4.752;2022-12-13T11:08:23;101229.63;;;1.11;68.33
46534;BME280;32260;52.008;4.752;2022-12-13T11:11:10;101232.38;;;1.16;68.10
46534;BME280;32260;52.008;4.752;2022-12-13T11:16:37;101225.56;;;1.23;68.27
46534;BME280;32260;52.008;4.752;2022-12-13T11:19:16;101227.47;;;1.30;68.94
46534;BME280;32260;52.008;4.752;2022-12-13T11:21:47;101227.50;;;1.32;68.29
46534;BME280;32260;52.008;4.752;2022-12-13T11:24:30;101221.66;;;1.42;68.65
46534;BME280;32260;52.008;4.752;2022-12-13T11:27:04;101217.34;;;1.44;68.65
46534;BME280;32260;52.008;4.752;2022-12-13T11:29:45;101209.66;;;1.50;68.50
46534;BME280;32260;52.008;4.752;2022-12-13T11:32:30;101205.44;;;1.55;68.32
46534;BME280;32260;52.008;4.752;2022-12-13T11:35:21;101195.97;;;1.60;68.33
46534;BME280;32260;52.008;4.752;2022-12-13T11:38:04;101194.31;;;1.64;68.28
46534;BME280;32260;52.008;4.752;2022-12-13T11:40:34;101180.28;;;1.60;68.01
46534;BME280;32260;52.008;4.752;2022-12-13T11:43:20;101183.88;;;1.66;67.64
46534;BME280;32260;52.008;4.752;2022-12-13T11:45:56;101180.41;;;1.65;68.32
46534;BME280;32260;52.008;4.752;2022-12-13T11:48:35;101177.78;;;1.65;67.49
46534;BME280;32260;52.008;4.752;2022-12-13T11:51:08;101176.03;;;1.66;67.64
46534;BME280;32260;52.008;4.752;2022-12-13T11:53:58;101169.13;;;1.68;67.46
46534;BME280;32260;52.008;4.752;2022-12-13T11:56:32;101169.00;;;1.61;67.54
46534;BME280;32260;52.008;4.752;2022-12-13T12:01:50;101166.47;;;1.65;67.28
46534;BME280;32260;52.008;4.752;2022-12-13T12:04:54;101174.38;;;1.69;67.81
46534;BME280;32260;52.008;4.752;2022-12-13T12:07:13;101178.78;;;1.72;67.30
46534;BME280;32260;52.008;4.752;2022-12-13T12:09:50;101176.38;;;1.80;67.88
46534;BME280;32260;52.008;4.752;2022-12-13T12:12:32;101176.44;;;1.84;67.41
46534;BME280;32260;52.008;4.752;2022-12-13T12:15:22;101180.91;;;1.88;67.50
46534;BME280;32260;52.008;4.752;2022-12-13T12:17:50;101180.03;;;1.89;67.20
46534;BME280;32260;52.008;4.752;2022-12-13T12:20:26;101175.84;;;1.98;67.18
46534;BME280;32260;52.008;4.752;2022-12-13T12:23:10;101180.38;;;2.05;67.23
46534;BME280;32260;52.008;4.752;2022-12-13T12:25:50;101165.72;;;2.13;67.30
46534;BME280;32260;52.008;4.752;2022-12-13T12:29:16;101172.88;;;2.22;66.79
46534;BME280;32260;52.008;4.752;2022-12-13T12:34:33;101166.00;;;2.29;66.71
46534;BME280;32260;52.008;4.752;2022-12-13T12:40:00;101151.38;;;2.37;66.03
46534;BME280;32260;52.008;4.752;2022-12-13T12:42:56;101152.31;;;2.42;65.34
46534;BME280;32260;52.008;4.752;2022-12-13T12:45:48;101156.66;;;2.41;65.51
46534;BME280;32260;52.008;4.752;2022-12-13T12:48:51;101160.09;;;2.39;65.06
46534;BME280;32260;52.008;4.752;2022-12-13T12:51:41;101152.22;;;2.36;65.63
46534;BME280;32260;52.008;4.752;2022-12-13T12:57:25;101156.41;;;2.28;65.33
46534;BME280;32260;52.008;4.752;2022-12-13T13:00:18;101149.34;;;2.22;64.77
46534;BME280;32260;52.008;4.752;2022-12-13T13:05:59;101149.16;;;2.14;65.20
46534;BME280;32260;52.008;4.752;2022-12-13T13:21:37;101140.91;;;1.92;65.32
46534;BME280;32260;52.008;4.752;2022-12-13T13:26:52;101125.03;;;1.83;65.38
46534;BME280;32260;52.008;4.752;2022-12-13T13:38:29;101109.19;;;1.74;65.87
46534;BME280;32260;52.008;4.752;2022-12-13T13:41:40;101105.78;;;1.78;65.74
46534;BME280;32260;52.008;4.752;2022-12-13T13:45:26;101098.81;;;1.77;66.14
46534;BME280;32260;52.008;4.752;2022-12-13T14:21:23;101094.59;;;1.41;66.72
46534;BME280;32260;52.008;4.752;2022-12-13T14:26:54;101100.47;;;1.32;66.88
46534;BME280;32260;52.008;4.752;2022-12-13T14:29:30;101099.59;;;1.32;67.20
46534;BME280;32260;52.008;4.752;2022-12-13T14:31:57;101088.22;;;1.29;67.25
46534;BME280;32260;52.008;4.752;2022-12-13T14:34:27;101089.13;;;1.30;67.18
46534;BME280;32260;52.008;4.752;2022-12-13T14:36:58;101081.06;;;1.21;67.07
46534;BME280;32260;52.008;4.752;2022-12-13T14:39:25;101081.13;;;1.22;67.11
46534;BME280;32260;52.008;4.752;2022-12-13T14:41:56;101083.72;;;1.22;67.26
46534;BME280;32260;52.008;4.752;2022-12-13T14:44:26;101076.75;;;1.21;66.99
46534;BME280;32260;52.008;4.752;2022-12-13T14:46:55;101075.81;;;1.19;67.07
46534;BME280;32260;52.008;4.752;2022-12-13T14:49:23;101079.25;;;1.17;67.21
46534;BME280;32260;52.008;4.752;2022-12-13T14:51:57;101074.03;;;1.17;67.29
46534;BME280;32260;52.008;4.752;2022-12-13T14:54:42;101067.84;;;1.13;67.10
46534;BME280;32260;52.008;4.752;2022-12-13T14:57:16;101074.78;;;1.11;67.04
46534;BME280;32260;52.008;4.752;2022-12-13T14:59:46;101067.72;;;1.07;66.88
46534;BME280;32260;52.008;4.752;2022-12-13T15:02:16;101062.44;;;1.04;67.21
46534;BME280;32260;52.008;4.752;2022-12-13T15:04:42;101049.28;;;0.99;67.11
46534;BME280;32260;52.008;4.752;2022-12-13T15:07:31;101048.47;;;1.02;67.32
46534;BME280;32260;52.008;4.752;2022-12-13T15:10:01;101049.13;;;0.93;67.26
46534;BME280;32260;52.008;4.752;2022-12-13T15:12:28;101049.00;;;0.87;66.70